sensor_id;sensor_type;location;lat;lon;timestamp;pressure;altitude;pressure_sealevel;temperature;humidity
62725;BME280;49026;52.600;4.694;2023-05-09T00:00:45;101757.28;;;12.58;74.53
62725;BME280;49026;52.600;4.694;2023-05-09T00:03:11;101751.03;;;12.61;75.15
62725;BME280;49026;52.600;4.694;2023-05-09T00:05:37;101751.88;;;12.63;75.55
62725;BME280;49026;52.600;4.694;2023-05-09T00:08:02;101758.81;;;12.66;75.27
62725;BME280;49026;52.600;4.694;2023-05-09T00:10:30;101750.78;;;12.69;74.61
62725;BME280;49026;52.600;4.694;2023-05-09T00:12:56;101749.00;;;12.69;74.16
62725;BME280;49026;52.600;4.694;2023-05-09T00:15:23;101742.78;;;12.72;74.77
62725;BME280;49026;52.600;4.694;2023-05-09T00:17:52;101744.47;;;12.73;75.14
62725;BME280;49026;52.600;4.694;2023-05-09T00:20:18;101742.69;;;12.75;74.78
62725;BME280;49026;52.600;4.694;2023-05-09T00:22:44;101747.94;;;12.75;74.22
62725;BME280;49026;52.600;4.694;2023-05-09T00:25:10;101738.19;;;12.77;74.43
62725;BME280;49026;52.600;4.694;2023-05-09T00:27:35;101737.31;;;12.78;74.46
62725;BME280;49026;52.600;4.694;2023-05-09T00:30:02;101739.00;;;12.79;74.25
62725;BME280;49026;52.600;4.694;2023-05-09T00:32:28;101731.88;;;12.81;74.22
62725;BME280;49026;52.600;4.694;2023-05-09T00:34:56;101718.66;;;12.83;74.28
62725;BME280;49026;52.600;4.694;2023-05-09T00:37:22;101735.22;;;12.86;74.46
62725;BME280;49026;52.600;4.694;2023-05-09T00:39:47;101730.78;;;12.88;74.27
62725;BME280;49026;52.600;4.694;2023-05-09T00:42:13;101724.56;;;12.89;74.71
62725;BME280;49026;52.600;4.694;2023-05-09T00:44:38;101726.31;;;12.90;74.44
62725;BME280;49026;52.600;4.694;2023-05-09T00:47:04;101722.75;;;12.91;74.39
62725;BME280;49026;52.600;4.694;2023-05-09T00:49:31;101713.91;;;12.92;74.52
62725;BME280;49026;52.600;4.694;2023-05-09T00:51:57;101711.28;;;12.92;74.80
62725;BME280;49026;52.600;4.694;2023-05-09T00:54:23;101708.63;;;12.92;74.80
62725;BME280;49026;52.600;4.694;2023-05-09T00:56:48;101708.63;;;12.92;74.56
62725;BME280;49026;52.600;4.694;2023-05-09T00:59:14;101706.00;;;12.92;75.00
62725;BME280;49026;52.600;4.694;2023-05-09T01:01:39;101694.59;;;12.92;75.00
62725;BME280;49026;52.600;4.694;2023-05-09T01:04:05;101693.66;;;12.93;74.80
62725;BME280;49026;52.600;4.694;2023-05-09T01:12:15;101681.25;;;12.96;74.98
62725;BME280;49026;52.600;4.694;2023-05-09T01:20:31;101673.91;;;13.05;75.16
62725;BME280;49026;52.600;4.694;2023-05-09T01:31:33;101661.41;;;13.10;74.96
62725;BME280;49026;52.600;4.694;2023-05-09T01:34:01;101661.41;;;13.10;75.33
62725;BME280;49026;52.600;4.694;2023-05-09T01:36:31;101658.72;;;13.11;74.96
62725;BME280;49026;52.600;4.694;2023-05-09T01:38:58;101649.91;;;13.11;75.58
62725;BME280;49026;52.600;4.694;2023-05-09T01:41:24;101642.00;;;13.11;75.37
62725;BME280;49026;52.600;4.694;2023-05-09T01:43:53;101642.88;;;13.11;76.67
62725;BME280;49026;52.600;4.694;2023-05-09T01:46:22;101643.72;;;13.12;75.28
62725;BME280;49026;52.600;4.694;2023-05-09T01:48:55;101642.00;;;13.11;75.82
62725;BME280;49026;52.600;4.694;2023-05-09T01:51:21;101631.50;;;13.09;76.18
62725;BME280;49026;52.600;4.694;2023-05-09T01:53:47;101627.09;;;13.10;76.13
62725;BME280;49026;52.600;4.694;2023-05-09T01:56:17;101626.28;;;13.08;75.56
62725;BME280;49026;52.600;4.694;2023-05-09T01:58:45;101629.84;;;13.07;75.30
62725;BME280;49026;52.600;4.694;2023-05-09T02:01:14;101626.31;;;13.06;74.97
62725;BME280;49026;52.600;4.694;2023-05-09T02:03:41;101624.56;;;13.07;74.93
62725;BME280;49026;52.600;4.694;2023-05-09T02:06:07;101619.34;;;13.05;75.05
62725;BME280;49026;52.600;4.694;2023-05-09T02:08:33;101623.78;;;13.05;74.95
62725;BME280;49026;52.600;4.694;2023-05-09T02:11:01;101612.41;;;13.03;75.00
62725;BME280;49026;52.600;4.694;2023-05-09T02:13:26;101615.03;;;13.03;74.74
62725;BME280;49026;52.600;4.694;2023-05-09T02:15:55;101615.03;;;13.03;74.87
62725;BME280;49026;52.600;4.694;2023-05-09T02:18:21;101615.03;;;13.03;75.08
62725;BME280;49026;52.600;4.694;2023-05-09T02:20:49;101615.97;;;13.02;75.61
62725;BME280;49026;52.600;4.694;2023-05-09T02:23:17;101615.97;;;13.02;75.38
62725;BME280;49026;52.600;4.694;2023-05-09T02:25:42;101609.75;;;13.03;75.54
62725;BME280;49026;52.600;4.694;2023-05-09T02:28:08;101603.63;;;13.02;75.80
62725;BME280;49026;52.600;4.694;2023-05-09T02:30:38;101608.06;;;13.02;76.44
62725;BME280;49026;52.600;4.694;2023-05-09T02:33:07;101608.91;;;13.02;76.96
62725;BME280;49026;52.600;4.694;2023-05-09T02:35:34;101600.16;;;13.02;76.83
62725;BME280;49026;52.600;4.694;2023-05-09T02:38:01;101598.34;;;13.02;77.11
62725;BME280;49026;52.600;4.694;2023-05-09T02:40:30;101603.56;;;13.04;76.58
62725;BME280;49026;52.600;4.694;2023-05-09T02:42:56;101600.94;;;13.04;76.54
62725;BME280;49026;52.600;4.694;2023-05-09T02:45:21;101589.47;;;13.05;76.93
62725;BME280;49026;52.600;4.694;2023-05-09T02:47:47;101580.69;;;13.04;76.85
62725;BME280;49026;52.600;4.694;2023-05-09T02:50:12;101581.56;;;13.05;76.56
62725;BME280;49026;52.600;4.694;2023-05-09T02:52:40;101578.00;;;13.06;76.79
62725;BME280;49026;52.600;4.694;2023-05-09T02:55:06;101576.28;;;13.05;76.69
62725;BME280;49026;52.600;4.694;2023-05-09T02:57:31;101577.19;;;13.04;76.66
62725;BME280;49026;52.600;4.694;2023-05-09T02:59:57;101572.81;;;13.03;76.78
62725;BME280;49026;52.600;4.694;2023-05-09T03:02:22;101570.19;;;13.03;77.41
62725;BME280;49026;52.600;4.694;2023-05-09T03:04:50;101570.25;;;13.01;77.04
62725;BME280;49026;52.600;4.694;2023-05-09T03:07:18;101565.84;;;13.02;77.15
62725;BME280;49026;52.600;4.694;2023-05-09T03:09:43;101567.66;;;13.00;77.57
62725;BME280;49026;52.600;4.694;2023-05-09T03:12:09;101570.31;;;13.00;77.07
62725;BME280;49026;52.600;4.694;2023-05-09T03:14:34;101563.28;;;13.00;76.97
62725;BME280;49026;52.600;4.694;2023-05-09T03:16:59;101560.69;;;12.98;76.97
62725;BME280;49026;52.600;4.694;2023-05-09T03:19:25;101550.97;;;12.99;77.40
62725;BME280;49026;52.600;4.694;2023-05-09T03:21:50;101541.28;;;13.00;77.03
62725;BME280;49026;52.600;4.694;2023-05-09T03:24:17;101539.63;;;12.97;78.05
62725;BME280;49026;52.600;4.694;2023-05-09T03:26:43;101543.13;;;12.97;77.35
62725;BME280;49026;52.600;4.694;2023-05-09T03:29:08;101545.81;;;12.96;77.40
62725;BME280;49026;52.600;4.694;2023-05-09T03:31:33;101544.97;;;12.95;77.24
62725;BME280;49026;52.600;4.694;2023-05-09T03:33:59;101541.44;;;12.96;77.21
62725;BME280;49026;52.600;4.694;2023-05-09T03:36:24;101537.84;;;12.97;77.51
62725;BME280;49026;52.600;4.694;2023-05-09T03:38:50;101539.59;;;12.98;77.66
62725;BME280;49026;52.600;4.694;2023-05-09T03:41:16;101535.16;;;12.99;77.28
62725;BME280;49026;52.600;4.694;2023-05-09T03:43:44;101528.09;;;13.00;76.99
62725;BME280;49026;52.600;4.694;2023-05-09T03:46:10;101521.00;;;13.02;77.09
62725;BME280;49026;52.600;4.694;2023-05-09T03:48:35;101526.28;;;13.02;77.46
62725;BME280;49026;52.600;4.694;2023-05-09T03:51:00;101526.28;;;13.02;77.61
62725;BME280;49026;52.600;4.694;2023-05-09T03:53:29;101514.84;;;13.01;77.52
62725;BME280;49026;52.600;4.694;2023-05-09T03:55:54;101511.34;;;13.01;77.78
62725;BME280;49026;52.600;4.694;2023-05-09T03:58:22;101506.97;;;13.00;77.95
62725;BME280;49026;52.600;4.694;2023-05-09T04:00:49;101504.34;;;13.00;78.44
62725;BME280;49026;52.600;4.694;2023-05-09T04:03:15;101504.34;;;13.00;78.61
62725;BME280;49026;52.600;4.694;2023-05-09T04:05:40;101505.22;;;13.00;79.00
62725;BME280;49026;52.600;4.694;2023-05-09T04:08:05;101496.44;;;13.00;78.13
62725;BME280;49026;52.600;4.694;2023-05-09T04:10:31;101503.44;;;13.01;78.11
62725;BME280;49026;52.600;4.694;2023-05-09T04:12:56;101505.22;;;13.00;78.09
62725;BME280;49026;52.600;4.694;2023-05-09T04:15:25;101501.66;;;13.01;77.77
62725;BME280;49026;52.600;4.694;2023-05-09T04:17:50;101498.94;;;13.03;77.76
62725;BME280;49026;52.600;4.694;2023-05-09T04:20:16;101504.22;;;13.03;79.01
62725;BME280;49026;52.600;4.694;2023-05-09T04:22:41;101487.50;;;13.04;78.60
62725;BME280;49026;52.600;4.694;2023-05-09T04:25:07;101481.31;;;13.05;79.08
62725;BME280;49026;52.600;4.694;2023-05-09T04:27:36;101485.59;;;13.07;77.76
62725;BME280;49026;52.600;4.694;2023-05-09T04:30:04;101477.63;;;13.09;77.37
62725;BME280;49026;52.600;4.694;2023-05-09T04:32:30;101478.47;;;13.09;77.69
62725;BME280;49026;52.600;4.694;2023-05-09T04:34:55;101472.22;;;13.12;77.79
62725;BME280;49026;52.600;4.694;2023-05-09T04:37:22;101473.91;;;13.13;77.47
62725;BME280;49026;52.600;4.694;2023-05-09T04:39:48;101479.06;;;13.16;77.66
62725;BME280;49026;52.600;4.694;2023-05-09T04:42:13;101471.09;;;13.18;77.50
62725;BME280;49026;52.600;4.694;2023-05-09T04:44:38;101460.53;;;13.18;77.61
62725;BME280;49026;52.600;4.694;2023-05-09T04:47:06;101465.75;;;13.19;80.13
62725;BME280;49026;52.600;4.694;2023-05-09T04:49:31;101460.41;;;13.21;80.26
62725;BME280;49026;52.600;4.694;2023-05-09T04:52:01;101459.44;;;13.23;78.88
62725;BME280;49026;52.600;4.694;2023-05-09T04:54:26;101456.75;;;13.25;79.13
62725;BME280;49026;52.600;4.694;2023-05-09T04:56:54;101455.75;;;13.27;78.42
62725;BME280;49026;52.600;4.694;2023-05-09T04:59:19;101455.63;;;13.30;78.64
62725;BME280;49026;52.600;4.694;2023-05-09T05:01:46;101452.06;;;13.31;80.74
62725;BME280;49026;52.600;4.694;2023-05-09T05:04:12;101452.94;;;13.32;80.10
62725;BME280;49026;52.600;4.694;2023-05-09T05:06:37;101448.53;;;13.32;79.64
62725;BME280;49026;52.600;4.694;2023-05-09T05:09:04;101438.81;;;13.33;80.95
62725;BME280;49026;52.600;4.694;2023-05-09T05:11:33;101439.69;;;13.33;81.79
62725;BME280;49026;52.600;4.694;2023-05-09T05:13:58;101446.66;;;13.34;81.84
62725;BME280;49026;52.600;4.694;2023-05-09T05:16:24;101443.13;;;13.36;80.47
62725;BME280;49026;52.600;4.694;2023-05-09T05:18:49;101443.13;;;13.36;80.25
62725;BME280;49026;52.600;4.694;2023-05-09T05:21:14;101438.81;;;13.33;78.77
62725;BME280;49026;52.600;4.694;2023-05-09T05:23:40;101435.31;;;13.32;78.42
62725;BME280;49026;52.600;4.694;2023-05-09T05:26:05;101436.41;;;13.27;79.20
62725;BME280;49026;52.600;4.694;2023-05-09T05:28:31;101424.19;;;13.24;78.33
62725;BME280;49026;52.600;4.694;2023-05-09T05:30:58;101425.25;;;13.20;78.89
62725;BME280;49026;52.600;4.694;2023-05-09T05:33:24;101420.09;;;13.17;79.89
62725;BME280;49026;52.600;4.694;2023-05-09T05:35:52;101421.00;;;13.16;79.38
62725;BME280;49026;52.600;4.694;2023-05-09T05:38:17;101420.97;;;13.18;79.44
62725;BME280;49026;52.600;4.694;2023-05-09T05:40:42;101415.75;;;13.16;79.93
62725;BME280;49026;52.600;4.694;2023-05-09T05:43:08;101425.50;;;13.14;79.69
62725;BME280;49026;52.600;4.694;2023-05-09T05:45:33;101423.00;;;13.11;79.88
62725;BME280;49026;52.600;4.694;2023-05-09T05:47:58;101405.53;;;13.08;80.80
62725;BME280;49026;52.600;4.694;2023-05-09T05:50:26;101406.63;;;13.03;82.35
62725;BME280;49026;52.600;4.694;2023-05-09T05:52:54;101409.38;;;13.00;80.87
62725;BME280;49026;52.600;4.694;2023-05-09T05:55:20;101405.94;;;12.97;82.18
62725;BME280;49026;52.600;4.694;2023-05-09T05:57:45;101400.78;;;12.94;81.12
62725;BME280;49026;52.600;4.694;2023-05-09T06:00:12;101401.81;;;12.92;84.67
62725;BME280;49026;52.600;4.694;2023-05-09T06:02:41;101398.38;;;12.90;83.49
62725;BME280;49026;52.600;4.694;2023-05-09T06:05:06;101396.59;;;12.90;82.28
62725;BME280;49026;52.600;4.694;2023-05-09T06:07:32;101391.31;;;12.90;82.10
62725;BME280;49026;52.600;4.694;2023-05-09T06:09:57;101391.44;;;12.87;82.54
62725;BME280;49026;52.600;4.694;2023-05-09T06:12:23;101388.78;;;12.87;83.35
62725;BME280;49026;52.600;4.694;2023-05-09T06:14:50;101385.38;;;12.85;85.81
62725;BME280;49026;52.600;4.694;2023-05-09T06:17:16;101382.72;;;12.85;84.78
62725;BME280;49026;52.600;4.694;2023-05-09T06:19:41;101381.94;;;12.83;85.09
62725;BME280;49026;52.600;4.694;2023-05-09T06:22:07;101374.94;;;12.82;84.73
62725;BME280;49026;52.600;4.694;2023-05-09T06:24:32;101374.03;;;12.83;85.05
62725;BME280;49026;52.600;4.694;2023-05-09T06:26:57;101373.09;;;12.84;84.71
62725;BME280;49026;52.600;4.694;2023-05-09T06:29:23;101374.81;;;12.85;82.86
62725;BME280;49026;52.600;4.694;2023-05-09T06:31:48;101365.06;;;12.87;84.13
62725;BME280;49026;52.600;4.694;2023-05-09T06:34:13;101360.69;;;12.86;82.67
62725;BME280;49026;52.600;4.694;2023-05-09T06:36:39;101363.19;;;12.89;82.89
62725;BME280;49026;52.600;4.694;2023-05-09T06:39:04;101355.16;;;12.92;80.87
62725;BME280;49026;52.600;4.694;2023-05-09T06:41:30;101352.47;;;12.94;81.73
62725;BME280;49026;52.600;4.694;2023-05-09T06:43:55;101346.22;;;12.96;82.09
62725;BME280;49026;52.600;4.694;2023-05-09T06:46:20;101344.38;;;12.98;80.87
62725;BME280;49026;52.600;4.694;2023-05-09T06:48:46;101345.16;;;13.01;81.72
62725;BME280;49026;52.600;4.694;2023-05-09T06:51:11;101347.72;;;13.02;80.56
62725;BME280;49026;52.600;4.694;2023-05-09T06:53:37;101341.53;;;13.03;79.95
62725;BME280;49026;52.600;4.694;2023-05-09T06:56:02;101342.38;;;13.04;80.41
62725;BME280;49026;52.600;4.694;2023-05-09T06:58:28;101343.19;;;13.06;82.47
62725;BME280;49026;52.600;4.694;2023-05-09T07:00:53;101337.84;;;13.07;81.95
62725;BME280;49026;52.600;4.694;2023-05-09T07:03:19;101343.97;;;13.08;81.08
62725;BME280;49026;52.600;4.694;2023-05-09T07:05:44;101339.63;;;13.07;84.66
62725;BME280;49026;52.600;4.694;2023-05-09T07:08:16;101325.66;;;13.05;85.59
62725;BME280;49026;52.600;4.694;2023-05-09T07:10:44;101331.06;;;13.02;85.27
62725;BME280;49026;52.600;4.694;2023-05-09T07:13:09;101321.34;;;13.02;85.34
62725;BME280;49026;52.600;4.694;2023-05-09T07:15:45;101324.84;;;13.03;84.33
62725;BME280;49026;52.600;4.694;2023-05-09T07:18:11;101323.94;;;13.04;82.32
62725;BME280;49026;52.600;4.694;2023-05-09T07:20:36;101315.09;;;13.05;81.50
62725;BME280;49026;52.600;4.694;2023-05-09T07:23:02;101317.50;;;13.09;81.18
62725;BME280;49026;52.600;4.694;2023-05-09T07:25:31;101320.09;;;13.11;82.93
62725;BME280;49026;52.600;4.694;2023-05-09T07:27:57;101311.25;;;13.12;81.12
62725;BME280;49026;52.600;4.694;2023-05-09T07:30:22;101307.63;;;13.14;80.89
62725;BME280;49026;52.600;4.694;2023-05-09T07:32:48;101299.63;;;13.16;80.98
62725;BME280;49026;52.600;4.694;2023-05-09T07:35:13;101309.28;;;13.17;80.88
62725;BME280;49026;52.600;4.694;2023-05-09T07:37:40;101302.22;;;13.18;81.58
62725;BME280;49026;52.600;4.694;2023-05-09T07:40:06;101303.88;;;13.20;80.58
62725;BME280;49026;52.600;4.694;2023-05-09T07:42:32;101301.88;;;13.25;80.91
62725;BME280;49026;52.600;4.694;2023-05-09T07:44:58;101292.19;;;13.26;82.05
62725;BME280;49026;52.600;4.694;2023-05-09T07:47:24;101288.56;;;13.28;81.58
62725;BME280;49026;52.600;4.694;2023-05-09T07:49:52;101288.44;;;13.31;80.85
62725;BME280;49026;52.600;4.694;2023-05-09T07:52:17;101285.78;;;13.31;81.74
62725;BME280;49026;52.600;4.694;2023-05-09T07:54:43;101280.72;;;13.27;82.16
62725;BME280;49026;52.600;4.694;2023-05-09T07:57:08;101281.69;;;13.24;80.79
62725;BME280;49026;52.600;4.694;2023-05-09T07:59:34;101273.06;;;13.21;80.53
62725;BME280;49026;52.600;4.694;2023-05-09T08:01:59;101264.28;;;13.20;80.82
62725;BME280;49026;52.600;4.694;2023-05-09T08:04:25;101264.28;;;13.20;81.31
62725;BME280;49026;52.600;4.694;2023-05-09T08:06:50;101258.88;;;13.23;80.73
62725;BME280;49026;52.600;4.694;2023-05-09T08:09:16;101258.72;;;13.26;81.93
62725;BME280;49026;52.600;4.694;2023-05-09T08:11:42;101254.31;;;13.27;82.05
62725;BME280;49026;52.600;4.694;2023-05-09T08:14:08;101249.75;;;13.30;82.71
62725;BME280;49026;52.600;4.694;2023-05-09T08:16:33;101246.94;;;13.35;81.05
62725;BME280;49026;52.600;4.694;2023-05-09T08:18:58;101243.28;;;13.38;82.00
62725;BME280;49026;52.600;4.694;2023-05-09T08:21:26;101247.72;;;13.37;82.29
62725;BME280;49026;52.600;4.694;2023-05-09T08:23:51;101235.25;;;13.41;84.79
62725;BME280;49026;52.600;4.694;2023-05-09T08:26:17;101239.59;;;13.42;83.24
62725;BME280;49026;52.600;4.694;2023-05-09T08:28:42;101230.75;;;13.43;82.82
62725;BME280;49026;52.600;4.694;2023-05-09T08:31:10;101224.53;;;13.44;84.85
62725;BME280;49026;52.600;4.694;2023-05-09T08:33:35;101223.69;;;13.43;84.17
62725;BME280;49026;52.600;4.694;2023-05-09T08:36:01;101223.06;;;13.38;84.84
62725;BME280;49026;52.600;4.694;2023-05-09T08:38:26;101219.53;;;13.38;86.13
62725;BME280;49026;52.600;4.694;2023-05-09T08:40:58;101221.41;;;13.36;85.90
62725;BME280;49026;52.600;4.694;2023-05-09T08:43:23;101224.09;;;13.34;87.78
62725;BME280;49026;52.600;4.694;2023-05-09T08:45:51;101209.47;;;13.27;88.48
62725;BME280;49026;52.600;4.694;2023-05-09T08:48:18;101217.63;;;13.21;87.34
62725;BME280;49026;52.600;4.694;2023-05-09T08:50:45;101216.78;;;13.20;88.74
62725;BME280;49026;52.600;4.694;2023-05-09T08:53:13;101215.19;;;13.16;87.48
62725;BME280;49026;52.600;4.694;2023-05-09T08:55:40;101211.50;;;13.20;86.96
62725;BME280;49026;52.600;4.694;2023-05-09T08:58:08;101200.00;;;13.21;88.02
62725;BME280;49026;52.600;4.694;2023-05-09T09:00:35;101211.50;;;13.20;88.98
62725;BME280;49026;52.600;4.694;2023-05-09T09:03:05;101211.44;;;13.22;87.02
62725;BME280;49026;52.600;4.694;2023-05-09T09:05:32;101202.53;;;13.24;85.82
62725;BME280;49026;52.600;4.694;2023-05-09T09:08:00;101204.25;;;13.25;87.93
62725;BME280;49026;52.600;4.694;2023-05-09T09:10:28;101200.97;;;13.20;87.46
62725;BME280;49026;52.600;4.694;2023-05-09T09:12:57;101192.91;;;13.23;86.56
62725;BME280;49026;52.600;4.694;2023-05-09T09:15:25;101203.41;;;13.25;85.66
62725;BME280;49026;52.600;4.694;2023-05-09T09:17:53;101191.97;;;13.24;86.84
62725;BME280;49026;52.600;4.694;2023-05-09T09:20:21;101194.59;;;13.24;86.79
62725;BME280;49026;52.600;4.694;2023-05-09T09:22:48;101176.00;;;13.27;86.48
62725;BME280;49026;52.600;4.694;2023-05-09T09:25:18;101181.13;;;13.30;86.30
62725;BME280;49026;52.600;4.694;2023-05-09T09:27:46;101170.72;;;13.27;87.15
62725;BME280;49026;52.600;4.694;2023-05-09T09:30:11;101173.34;;;13.27;87.54
62725;BME280;49026;52.600;4.694;2023-05-09T09:32:39;101182.28;;;13.25;88.08
62725;BME280;49026;52.600;4.694;2023-05-09T09:35:09;101168.16;;;13.26;85.49
62725;BME280;49026;52.600;4.694;2023-05-09T09:37:36;101174.13;;;13.29;85.05
62725;BME280;49026;52.600;4.694;2023-05-09T09:40:05;101166.88;;;13.34;86.00
62725;BME280;49026;52.600;4.694;2023-05-09T09:42:43;101163.19;;;13.39;86.06
62725;BME280;49026;52.600;4.694;2023-05-09T09:45:10;101162.75;;;13.48;85.94
62725;BME280;49026;52.600;4.694;2023-05-09T09:47:37;101164.97;;;13.57;87.07
62725;BME280;49026;52.600;4.694;2023-05-09T09:50:19;101162.03;;;13.63;86.99
62725;BME280;49026;52.600;4.694;2023-05-09T09:52:53;101160.75;;;13.72;89.54
62725;BME280;49026;52.600;4.694;2023-05-09T09:55:21;101162.28;;;13.76;88.34
62725;BME280;49026;52.600;4.694;2023-05-09T09:57:50;101147.38;;;13.75;89.31
62725;BME280;49026;52.600;4.694;2023-05-09T10:00:19;101153.53;;;13.76;88.67
62725;BME280;49026;52.600;4.694;2023-05-09T10:02:52;101150.59;;;13.82;90.19
62725;BME280;49026;52.600;4.694;2023-05-09T10:05:22;101150.50;;;13.83;89.50
62725;BME280;49026;52.600;4.694;2023-05-09T10:07:58;101137.22;;;13.85;88.84
62725;BME280;49026;52.600;4.694;2023-05-09T10:10:28;101146.91;;;13.84;88.58
62725;BME280;49026;52.600;4.694;2023-05-09T10:13:00;101148.09;;;13.79;87.31
62725;BME280;49026;52.600;4.694;2023-05-09T10:15:27;101144.69;;;13.77;87.10
62725;BME280;49026;52.600;4.694;2023-05-09T10:17:55;101146.50;;;13.75;88.14
62725;BME280;49026;52.600;4.694;2023-05-09T10:20:21;101143.88;;;13.75;86.63
62725;BME280;49026;52.600;4.694;2023-05-09T10:22:47;101137.81;;;13.73;86.96
62725;BME280;49026;52.600;4.694;2023-05-09T10:25:16;101137.88;;;13.71;85.36
62725;BME280;49026;52.600;4.694;2023-05-09T10:27:44;101143.25;;;13.69;87.07
62725;BME280;49026;52.600;4.694;2023-05-09T10:30:22;101135.31;;;13.69;85.80
62725;BME280;49026;52.600;4.694;2023-05-09T10:33:07;101130.91;;;13.70;87.39
62725;BME280;49026;52.600;4.694;2023-05-09T10:35:35;101131.75;;;13.70;88.61
62725;BME280;49026;52.600;4.694;2023-05-09T10:38:01;101124.75;;;13.69;86.33
62725;BME280;49026;52.600;4.694;2023-05-09T10:40:27;101125.56;;;13.71;85.68
62725;BME280;49026;52.600;4.694;2023-05-09T10:42:56;101121.06;;;13.74;85.45
62725;BME280;49026;52.600;4.694;2023-05-09T10:45:21;101120.91;;;13.77;84.66
62725;BME280;49026;52.600;4.694;2023-05-09T10:47:50;101112.97;;;13.77;84.57
62725;BME280;49026;52.600;4.694;2023-05-09T10:50:17;101106.06;;;13.74;84.89
62725;BME280;49026;52.600;4.694;2023-05-09T10:55:53;101099.91;;;13.74;87.04
62725;BME280;49026;52.600;4.694;2023-05-09T10:58:27;101107.91;;;13.72;88.06
62725;BME280;49026;52.600;4.694;2023-05-09T11:01:00;101102.84;;;13.67;88.88
62725;BME280;49026;52.600;4.694;2023-05-09T11:03:55;101099.44;;;13.65;89.44
62725;BME280;49026;52.600;4.694;2023-05-09T11:09:29;101101.63;;;13.75;87.80
62725;BME280;49026;52.600;4.694;2023-05-09T11:11:59;101095.41;;;13.76;89.49
62725;BME280;49026;52.600;4.694;2023-05-09T11:16:59;101089.22;;;13.77;86.70
62725;BME280;49026;52.600;4.694;2023-05-09T11:22:17;101082.91;;;13.79;87.76
62725;BME280;49026;52.600;4.694;2023-05-09T11:24:44;101081.13;;;13.80;87.57
62725;BME280;49026;52.600;4.694;2023-05-09T11:29:45;101066.69;;;13.87;87.33
62725;BME280;49026;52.600;4.694;2023-05-09T11:32:14;101068.31;;;13.89;86.81
62725;BME280;49026;52.600;4.694;2023-05-09T11:34:42;101076.16;;;13.91;84.82
62725;BME280;49026;52.600;4.694;2023-05-09T11:37:09;101070.09;;;13.89;85.60
62725;BME280;49026;52.600;4.694;2023-05-09T11:39:54;101065.03;;;13.84;86.07
62725;BME280;49026;52.600;4.694;2023-05-09T11:42:22;101062.47;;;13.83;85.69
62725;BME280;49026;52.600;4.694;2023-05-09T11:44:48;101063.50;;;13.80;86.69
62725;BME280;49026;52.600;4.694;2023-05-09T11:47:17;101056.56;;;13.78;86.38
62725;BME280;49026;52.600;4.694;2023-05-09T11:49:43;101057.53;;;13.77;87.14
62725;BME280;49026;52.600;4.694;2023-05-09T11:52:18;101054.81;;;13.78;86.03
62725;BME280;49026;52.600;4.694;2023-05-09T11:54:45;101057.34;;;13.80;87.45
62725;BME280;49026;52.600;4.694;2023-05-09T11:57:10;101043.06;;;13.84;87.49
62725;BME280;49026;52.600;4.694;2023-05-09T11:59:42;101046.47;;;13.86;86.44
62725;BME280;49026;52.600;4.694;2023-05-09T12:02:09;101041.81;;;13.91;85.29
62725;BME280;49026;52.600;4.694;2023-05-09T12:04:35;101042.28;;;13.99;84.82
62725;BME280;49026;52.600;4.694;2023-05-09T12:07:01;101034.66;;;14.11;87.32
62725;BME280;49026;52.600;4.694;2023-05-09T12:09:30;101028.19;;;14.16;85.53
62725;BME280;49026;52.600;4.694;2023-05-09T12:11:57;101031.38;;;14.23;86.61
62725;BME280;49026;52.600;4.694;2023-05-09T12:14:31;101031.13;;;14.27;85.15
62725;BME280;49026;52.600;4.694;2023-05-09T12:17:07;101019.38;;;14.33;85.93
62725;BME280;49026;52.600;4.694;2023-05-09T12:19:33;101014.81;;;14.37;85.52
62725;BME280;49026;52.600;4.694;2023-05-09T12:22:00;101018.53;;;14.33;86.51
62725;BME280;49026;52.600;4.694;2023-05-09T12:24:27;101021.16;;;14.33;86.21
62725;BME280;49026;52.600;4.694;2023-05-09T12:26:58;101014.88;;;14.35;84.55
62725;BME280;49026;52.600;4.694;2023-05-09T12:29:24;101007.63;;;14.39;84.75
62725;BME280;49026;52.600;4.694;2023-05-09T12:31:52;101011.34;;;14.35;86.43
62725;BME280;49026;52.600;4.694;2023-05-09T12:34:20;101014.28;;;14.30;85.44
62725;BME280;49026;52.600;4.694;2023-05-09T12:36:46;101010.84;;;14.28;87.21
62725;BME280;49026;52.600;4.694;2023-05-09T12:39:20;101014.28;;;14.30;85.54
62725;BME280;49026;52.600;4.694;2023-05-09T12:41:48;101005.22;;;14.34;86.27
62725;BME280;49026;52.600;4.694;2023-05-09T12:44:25;101000.88;;;14.33;85.05
62725;BME280;49026;52.600;4.694;2023-05-09T12:46:58;101001.97;;;14.29;86.96
62725;BME280;49026;52.600;4.694;2023-05-09T12:49:24;101002.28;;;14.23;88.65
62725;BME280;49026;52.600;4.694;2023-05-09T12:51:51;101006.19;;;14.16;87.86
62725;BME280;49026;52.600;4.694;2023-05-09T12:54:29;100995.63;;;14.16;86.37
62725;BME280;49026;52.600;4.694;2023-05-09T12:56:56;100989.97;;;14.23;85.10
62725;BME280;49026;52.600;4.694;2023-05-09T12:59:24;100991.25;;;14.32;84.03
62725;BME280;49026;52.600;4.694;2023-05-09T13:01:58;100993.72;;;14.35;84.71
62725;BME280;49026;52.600;4.694;2023-05-09T13:04:27;100989.22;;;14.37;84.62
62725;BME280;49026;52.600;4.694;2023-05-09T13:06:55;100983.25;;;14.34;86.88
62725;BME280;49026;52.600;4.694;2023-05-09T13:09:24;100986.97;;;14.30;87.27
62725;BME280;49026;52.600;4.694;2023-05-09T13:11:51;100987.84;;;14.30;86.57
62725;BME280;49026;52.600;4.694;2023-05-09T13:14:17;100990.28;;;14.33;85.33
62725;BME280;49026;52.600;4.694;2023-05-09T13:16:45;100990.13;;;14.36;86.20
62725;BME280;49026;52.600;4.694;2023-05-09T13:19:11;100986.31;;;14.42;85.53
62725;BME280;49026;52.600;4.694;2023-05-09T13:21:36;100980.09;;;14.43;85.36
62725;BME280;49026;52.600;4.694;2023-05-09T13:24:03;100975.06;;;14.38;86.29